sensor_id;sensor_type;location;lat;lon;timestamp;P1;durP1;ratioP1;P2;durP2;ratioP2
5519;SDS011;2782;52.362;10.012;2022-10-18T00:03:17;1.87;;;1.77;;
5519;SDS011;2782;52.362;10.012;2022-10-18T00:10:00;6.20;;;2.20;;
5519;SDS011;2782;52.362;10.012;2022-10-18T00:16:42;1.80;;;1.70;;
5519;SDS011;2782;52.362;10.012;2022-10-18T00:23:24;1.80;;;1.70;;
5519;SDS011;2782;52.362;10.012;2022-10-18T00:30:08;2.47;;;1.93;;
5519;SDS011;2782;52.362;10.012;2022-10-18T00:36:50;2.20;;;2.00;;
5519;SDS011;2782;52.362;10.012;2022-10-18T00:43:31;2.30;;;2.10;;
5519;SDS011;2782;52.362;10.012;2022-10-18T00:50:15;2.30;;;2.10;;
5519;SDS011;2782;52.362;10.012;2022-10-18T00:56:57;1.97;;;1.87;;
5519;SDS011;2782;52.362;10.012;2022-10-18T01:03:39;1.77;;;1.63;;
5519;SDS011;2782;52.362;10.012;2022-10-18T01:10:25;2.70;;;1.83;;
5519;SDS011;2782;52.362;10.012;2022-10-18T01:17:12;2.33;;;2.13;;
5519;SDS011;2782;52.362;10.012;2022-10-18T01:31:14;2.10;;;1.83;;
5519;SDS011;2782;52.362;10.012;2022-10-18T01:38:01;1.87;;;1.77;;
5519;SDS011;2782;52.362;10.012;2022-10-18T01:44:46;1.80;;;1.70;;
5519;SDS011;2782;52.362;10.012;2022-10-18T01:51:33;1.97;;;1.77;;
5519;SDS011;2782;52.362;10.012;2022-10-18T01:58:17;2.07;;;1.73;;
5519;SDS011;2782;52.362;10.012;2022-10-18T02:05:04;1.70;;;1.60;;
5519;SDS011;2782;52.362;10.012;2022-10-18T02:11:55;1.67;;;1.57;;
5519;SDS011;2782;52.362;10.012;2022-10-18T02:18:38;1.70;;;1.60;;
5519;SDS011;2782;52.362;10.012;2022-10-18T02:25:22;2.13;;;1.43;;
5519;SDS011;2782;52.362;10.012;2022-10-18T02:32:09;2.67;;;1.77;;
5519;SDS011;2782;52.362;10.012;2022-10-18T02:38:58;2.70;;;1.97;;
5519;SDS011;2782;52.362;10.012;2022-10-18T02:45:44;2.20;;;1.90;;
5519;SDS011;2782;52.362;10.012;2022-10-18T02:52:27;2.10;;;1.90;;
5519;SDS011;2782;52.362;10.012;2022-10-18T02:59:09;1.17;;;1.07;;
5519;SDS011;2782;52.362;10.012;2022-10-18T03:05:51;1.70;;;1.60;;
5519;SDS011;2782;52.362;10.012;2022-10-18T03:12:35;1.73;;;1.33;;
5519;SDS011;2782;52.362;10.012;2022-10-18T03:19:17;1.10;;;1.10;;
5519;SDS011;2782;52.362;10.012;2022-10-18T03:25:59;1.70;;;1.60;;
5519;SDS011;2782;52.362;10.012;2022-10-18T03:32:42;1.90;;;1.80;;
5519;SDS011;2782;52.362;10.012;2022-10-18T03:39:23;1.83;;;1.73;;
5519;SDS011;2782;52.362;10.012;2022-10-18T03:46:05;1.63;;;1.53;;
5519;SDS011;2782;52.362;10.012;2022-10-18T03:52:48;1.50;;;1.40;;
5519;SDS011;2782;52.362;10.012;2022-10-18T03:59:30;2.00;;;1.43;;
5519;SDS011;2782;52.362;10.012;2022-10-18T04:06:11;2.30;;;1.77;;
5519;SDS011;2782;52.362;10.012;2022-10-18T04:12:54;2.23;;;1.53;;
5519;SDS011;2782;52.362;10.012;2022-10-18T04:19:36;1.90;;;1.60;;
5519;SDS011;2782;52.362;10.012;2022-10-18T04:26:18;1.60;;;1.50;;
5519;SDS011;2782;52.362;10.012;2022-10-18T04:33:01;2.07;;;1.20;;
5519;SDS011;2782;52.362;10.012;2022-10-18T04:39:42;1.70;;;1.60;;
5519;SDS011;2782;52.362;10.012;2022-10-18T04:46:27;1.40;;;1.30;;
5519;SDS011;2782;52.362;10.012;2022-10-18T04:53:10;1.10;;;1.00;;
5519;SDS011;2782;52.362;10.012;2022-10-18T04:59:52;1.50;;;1.40;;
5519;SDS011;2782;52.362;10.012;2022-10-18T05:06:33;1.20;;;1.10;;
5519;SDS011;2782;52.362;10.012;2022-10-18T05:13:16;1.43;;;1.33;;
5519;SDS011;2782;52.362;10.012;2022-10-18T05:19:58;1.33;;;1.00;;
5519;SDS011;2782;52.362;10.012;2022-10-18T05:26:39;1.20;;;1.10;;
5519;SDS011;2782;52.362;10.012;2022-10-18T05:33:22;1.07;;;1.07;;
5519;SDS011;2782;52.362;10.012;2022-10-18T05:40:04;2.37;;;1.40;;
5519;SDS011;2782;52.362;10.012;2022-10-18T05:46:47;1.30;;;1.20;;
5519;SDS011;2782;52.362;10.012;2022-10-18T05:53:30;0.90;;;0.90;;
5519;SDS011;2782;52.362;10.012;2022-10-18T06:00:12;1.10;;;1.10;;
5519;SDS011;2782;52.362;10.012;2022-10-18T06:06:54;1.23;;;1.10;;
5519;SDS011;2782;52.362;10.012;2022-10-18T06:13:39;0.87;;;0.87;;
5519;SDS011;2782;52.362;10.012;2022-10-18T06:20:22;1.30;;;1.20;;
5519;SDS011;2782;52.362;10.012;2022-10-18T06:27:03;0.90;;;0.90;;
5519;SDS011;2782;52.362;10.012;2022-10-18T06:33:49;1.30;;;1.20;;
5519;SDS011;2782;52.362;10.012;2022-10-18T06:40:30;1.17;;;1.07;;
5519;SDS011;2782;52.362;10.012;2022-10-18T06:47:16;1.33;;;1.23;;
5519;SDS011;2782;52.362;10.012;2022-10-18T06:53:59;1.30;;;1.20;;
5519;SDS011;2782;52.362;10.012;2022-10-18T07:00:41;2.27;;;1.30;;
5519;SDS011;2782;52.362;10.012;2022-10-18T07:07:24;1.33;;;1.23;;
5519;SDS011;2782;52.362;10.012;2022-10-18T07:14:07;1.30;;;1.20;;
5519;SDS011;2782;52.362;10.012;2022-10-18T07:20:49;1.47;;;1.37;;
5519;SDS011;2782;52.362;10.012;2022-10-18T07:27:30;2.80;;;1.60;;
5519;SDS011;2782;52.362;10.012;2022-10-18T07:34:17;1.13;;;1.07;;
5519;SDS011;2782;52.362;10.012;2022-10-18T07:40:59;2.60;;;1.60;;
5519;SDS011;2782;52.362;10.012;2022-10-18T07:47:42;1.87;;;1.60;;
5519;SDS011;2782;52.362;10.012;2022-10-18T07:54:25;1.77;;;1.57;;
5519;SDS011;2782;52.362;10.012;2022-10-18T08:01:07;1.20;;;1.20;;
5519;SDS011;2782;52.362;10.012;2022-10-18T08:07:49;1.47;;;1.40;;
5519;SDS011;2782;52.362;10.012;2022-10-18T08:14:32;1.20;;;1.10;;
5519;SDS011;2782;52.362;10.012;2022-10-18T08:21:14;1.70;;;1.60;;
5519;SDS011;2782;52.362;10.012;2022-10-18T08:27:56;0.90;;;0.90;;
5519;SDS011;2782;52.362;10.012;2022-10-18T08:34:39;2.50;;;1.43;;
5519;SDS011;2782;52.362;10.012;2022-10-18T08:41:24;1.70;;;1.60;;
5519;SDS011;2782;52.362;10.012;2022-10-18T08:48:18;1.23;;;1.13;;
5519;SDS011;2782;52.362;10.012;2022-10-18T08:55:08;2.20;;;1.73;;
5519;SDS011;2782;52.362;10.012;2022-10-18T09:01:55;1.50;;;1.27;;
5519;SDS011;2782;52.362;10.012;2022-10-18T09:08:46;1.57;;;1.47;;
5519;SDS011;2782;52.362;10.012;2022-10-18T09:15:41;1.30;;;1.17;;
5519;SDS011;2782;52.362;10.012;2022-10-18T09:22:31;1.53;;;1.30;;
5519;SDS011;2782;52.362;10.012;2022-10-18T09:29:46;1.13;;;0.80;;
5519;SDS011;2782;52.362;10.012;2022-10-18T09:36:38;1.77;;;0.97;;
5519;SDS011;2782;52.362;10.012;2022-10-18T09:43:21;8.80;;;1.57;;
5519;SDS011;2782;52.362;10.012;2022-10-18T09:50:12;1.70;;;1.60;;
5519;SDS011;2782;52.362;10.012;2022-10-18T09:57:03;1.20;;;1.10;;
5519;SDS011;2782;52.362;10.012;2022-10-18T10:03:48;1.97;;;1.50;;
5519;SDS011;2782;52.362;10.012;2022-10-18T10:10:30;2.40;;;1.10;;
5519;SDS011;2782;52.362;10.012;2022-10-18T10:17:21;0.90;;;0.87;;
5519;SDS011;2782;52.362;10.012;2022-10-18T10:24:05;2.40;;;0.80;;
5519;SDS011;2782;52.362;10.012;2022-10-18T10:30:47;1.90;;;1.27;;
5519;SDS011;2782;52.362;10.012;2022-10-18T10:37:31;4.17;;;1.27;;
5519;SDS011;2782;52.362;10.012;2022-10-18T10:44:14;7.10;;;2.00;;
5519;SDS011;2782;52.362;10.012;2022-10-18T10:51:02;4.43;;;1.70;;
5519;SDS011;2782;52.362;10.012;2022-10-18T10:57:48;2.03;;;1.30;;
5519;SDS011;2782;52.362;10.012;2022-10-18T11:04:31;4.20;;;1.63;;
5519;SDS011;2782;52.362;10.012;2022-10-18T11:11:14;6.07;;;1.13;;
5519;SDS011;2782;52.362;10.012;2022-10-18T11:18:09;3.90;;;1.30;;
5519;SDS011;2782;52.362;10.012;2022-10-18T11:24:57;1.37;;;1.27;;
5519;SDS011;2782;52.362;10.012;2022-10-18T11:31:40;1.40;;;1.30;;
5519;SDS011;2782;52.362;10.012;2022-10-18T11:38:30;1.67;;;1.10;;
5519;SDS011;2782;52.362;10.012;2022-10-18T11:45:24;2.87;;;1.07;;
5519;SDS011;2782;52.362;10.012;2022-10-18T11:52:12;2.03;;;1.30;;
5519;SDS011;2782;52.362;10.012;2022-10-18T11:59:07;2.00;;;1.03;;
5519;SDS011;2782;52.362;10.012;2022-10-18T12:06:03;2.67;;;1.20;;
5519;SDS011;2782;52.362;10.012;2022-10-18T12:12:50;3.90;;;0.97;;
5519;SDS011;2782;52.362;10.012;2022-10-18T12:19:36;1.10;;;1.00;;
5519;SDS011;2782;52.362;10.012;2022-10-18T12:26:19;1.00;;;1.00;;
5519;SDS011;2782;52.362;10.012;2022-10-18T12:33:03;1.23;;;0.80;;
5519;SDS011;2782;52.362;10.012;2022-10-18T12:39:51;4.13;;;0.90;;
5519;SDS011;2782;52.362;10.012;2022-10-18T12:46:42;2.20;;;0.97;;
5519;SDS011;2782;52.362;10.012;2022-10-18T12:53:25;1.03;;;0.80;;
5519;SDS011;2782;52.362;10.012;2022-10-18T13:00:16;1.20;;;1.00;;
5519;SDS011;2782;52.362;10.012;2022-10-18T13:07:32;2.20;;;0.80;;
5519;SDS011;2782;52.362;10.012;2022-10-18T13:14:24;2.60;;;0.50;;
5519;SDS011;2782;52.362;10.012;2022-10-18T13:21:21;1.60;;;0.80;;
5519;SDS011;2782;52.362;10.012;2022-10-18T13:28:15;2.00;;;0.60;;
5519;SDS011;2782;52.362;10.012;2022-10-18T13:35:03;1.00;;;0.60;;
5519;SDS011;2782;52.362;10.012;2022-10-18T13:49:20;1.70;;;1.00;;
5519;SDS011;2782;52.362;10.012;2022-10-18T14:03:26;1.67;;;0.43;;
5519;SDS011;2782;52.362;10.012;2022-10-18T14:10:19;1.10;;;0.60;;
5519;SDS011;2782;52.362;10.012;2022-10-18T14:17:06;1.13;;;0.70;;
5519;SDS011;2782;52.362;10.012;2022-10-18T14:23:57;6.90;;;2.63;;
5519;SDS011;2782;52.362;10.012;2022-10-18T14:30:52;12.47;;;2.40;;
5519;SDS011;2782;52.362;10.012;2022-10-18T14:37:35;8.87;;;2.47;;
5519;SDS011;2782;52.362;10.012;2022-10-18T14:44:19;21.70;;;2.50;;
5519;SDS011;2782;52.362;10.012;2022-10-18T14:51:06;6.27;;;2.70;;
5519;SDS011;2782;52.362;10.012;2022-10-18T14:57:53;2.87;;;1.60;;
5519;SDS011;2782;52.362;10.012;2022-10-18T15:04:37;2.30;;;1.37;;
5519;SDS011;2782;52.362;10.012;2022-10-18T15:11:18;5.13;;;1.70;;
5519;SDS011;2782;52.362;10.012;2022-10-18T15:18:01;2.70;;;1.13;;
5519;SDS011;2782;52.362;10.012;2022-10-18T15:25:01;3.50;;;1.50;;
5519;SDS011;2782;52.362;10.012;2022-10-18T15:31:48;3.80;;;1.47;;
5519;SDS011;2782;52.362;10.012;2022-10-18T15:38:31;4.47;;;1.73;;
5519;SDS011;2782;52.362;10.012;2022-10-18T15:45:28;18.80;;;1.60;;
5519;SDS011;2782;52.362;10.012;2022-10-18T15:59:20;2.83;;;1.27;;
5519;SDS011;2782;52.362;10.012;2022-10-18T16:06:05;3.40;;;1.47;;
5519;SDS011;2782;52.362;10.012;2022-10-18T16:12:48;3.30;;;1.63;;
5519;SDS011;2782;52.362;10.012;2022-10-18T16:19:30;104.93;;;16.83;;
5519;SDS011;2782;52.362;10.012;2022-10-18T16:26:14;51.00;;;12.10;;
5519;SDS011;2782;52.362;10.012;2022-10-18T16:32:56;33.80;;;9.23;;
5519;SDS011;2782;52.362;10.012;2022-10-18T16:39:38;37.67;;;7.33;;
5519;SDS011;2782;52.362;10.012;2022-10-18T16:46:22;27.73;;;7.10;;
5519;SDS011;2782;52.362;10.012;2022-10-18T16:53:06;22.53;;;6.37;;
5519;SDS011;2782;52.362;10.012;2022-10-18T16:59:47;20.43;;;4.50;;
5519;SDS011;2782;52.362;10.012;2022-10-18T17:06:31;19.20;;;4.60;;
5519;SDS011;2782;52.362;10.012;2022-10-18T17:13:13;20.00;;;5.03;;
5519;SDS011;2782;52.362;10.012;2022-10-18T17:19:55;21.13;;;5.50;;
5519;SDS011;2782;52.362;10.012;2022-10-18T17:26:38;16.87;;;4.53;;
5519;SDS011;2782;52.362;10.012;2022-10-18T17:33:20;26.20;;;5.63;;
5519;SDS011;2782;52.362;10.012;2022-10-18T17:40:01;18.00;;;4.43;;
5519;SDS011;2782;52.362;10.012;2022-10-18T17:46:45;13.37;;;4.37;;
5519;SDS011;2782;52.362;10.012;2022-10-18T17:53:27;15.23;;;4.00;;
5519;SDS011;2782;52.362;10.012;2022-10-18T18:00:11;14.40;;;3.57;;
5519;SDS011;2782;52.362;10.012;2022-10-18T18:06:55;9.37;;;4.27;;
5519;SDS011;2782;52.362;10.012;2022-10-18T18:13:38;10.53;;;3.00;;
5519;SDS011;2782;52.362;10.012;2022-10-18T18:20:20;10.00;;;3.37;;
5519;SDS011;2782;52.362;10.012;2022-10-18T18:27:04;11.00;;;3.33;;
5519;SDS011;2782;52.362;10.012;2022-10-18T18:33:46;12.27;;;3.53;;
5519;SDS011;2782;52.362;10.012;2022-10-18T18:40:28;9.87;;;3.20;;
5519;SDS011;2782;52.362;10.012;2022-10-18T18:47:10;7.27;;;2.80;;
5519;SDS011;2782;52.362;10.012;2022-10-18T18:53:52;7.73;;;2.30;;
5519;SDS011;2782;52.362;10.012;2022-10-18T19:00:35;7.47;;;2.40;;
5519;SDS011;2782;52.362;10.012;2022-10-18T19:07:18;9.07;;;2.50;;
5519;SDS011;2782;52.362;10.012;2022-10-18T19:14:01;7.53;;;2.67;;
5519;SDS011;2782;52.362;10.012;2022-10-18T19:20:43;7.83;;;2.57;;
5519;SDS011;2782;52.362;10.012;2022-10-18T19:27:26;8.50;;;2.60;;
5519;SDS011;2782;52.362;10.012;2022-10-18T19:34:08;7.53;;;2.40;;
5519;SDS011;2782;52.362;10.012;2022-10-18T19:40:52;5.40;;;2.07;;
5519;SDS011;2782;52.362;10.012;2022-10-18T19:47:35;5.57;;;2.30;;
5519;SDS011;2782;52.362;10.012;2022-10-18T19:54:20;8.10;;;2.13;;
5519;SDS011;2782;52.362;10.012;2022-10-18T20:01:01;4.83;;;2.37;;
5519;SDS011;2782;52.362;10.012;2022-10-18T20:07:44;5.80;;;2.03;;
5519;SDS011;2782;52.362;10.012;2022-10-18T20:14:26;3.73;;;1.73;;
5519;SDS011;2782;52.362;10.012;2022-10-18T20:21:08;6.63;;;1.70;;
5519;SDS011;2782;52.362;10.012;2022-10-18T20:27:52;4.37;;;1.60;;
5519;SDS011;2782;52.362;10.012;2022-10-18T20:34:33;4.80;;;1.87;;
5519;SDS011;2782;52.362;10.012;2022-10-18T20:41:16;3.83;;;2.00;;
5519;SDS011;2782;52.362;10.012;2022-10-18T20:48:02;2.93;;;1.33;;
5519;SDS011;2782;52.362;10.012;2022-10-18T20:54:44;4.37;;;1.60;;
5519;SDS011;2782;52.362;10.012;2022-10-18T21:01:26;3.97;;;1.77;;
5519;SDS011;2782;52.362;10.012;2022-10-18T21:08:10;6.43;;;2.00;;
5519;SDS011;2782;52.362;10.012;2022-10-18T21:14:52;2.77;;;1.37;;
5519;SDS011;2782;52.362;10.012;2022-10-18T21:21:33;1.90;;;1.00;;
5519;SDS011;2782;52.362;10.012;2022-10-18T21:28:17;2.10;;;1.47;;
5519;SDS011;2782;52.362;10.012;2022-10-18T21:34:58;2.10;;;1.10;;
5519;SDS011;2782;52.362;10.012;2022-10-18T21:41:40;5.90;;;1.40;;
5519;SDS011;2782;52.362;10.012;2022-10-18T21:48:23;3.03;;;1.10;;
5519;SDS011;2782;52.362;10.012;2022-10-18T21:55:05;6.90;;;1.50;;
5519;SDS011;2782;52.362;10.012;2022-10-18T22:01:48;4.10;;;2.63;;
5519;SDS011;2782;52.362;10.012;2022-10-18T22:08:33;6.17;;;2.53;;
5519;SDS011;2782;52.362;10.012;2022-10-18T22:15:15;3.60;;;2.53;;
5519;SDS011;2782;52.362;10.012;2022-10-18T22:21:56;7.10;;;2.43;;
5519;SDS011;2782;52.362;10.012;2022-10-18T22:28:40;4.63;;;2.27;;
5519;SDS011;2782;52.362;10.012;2022-10-18T22:35:23;4.63;;;1.63;;
5519;SDS011;2782;52.362;10.012;2022-10-18T22:42:04;4.17;;;1.83;;
5519;SDS011;2782;52.362;10.012;2022-10-18T22:48:48;5.33;;;2.27;;
5519;SDS011;2782;52.362;10.012;2022-10-18T22:55:29;5.97;;;1.70;;
5519;SDS011;2782;52.362;10.012;2022-10-18T23:02:11;2.40;;;1.13;;
5519;SDS011;2782;52.362;10.012;2022-10-18T23:08:55;3.27;;;1.20;;
5519;SDS011;2782;52.362;10.012;2022-10-18T23:15:38;5.07;;;1.63;;
5519;SDS011;2782;52.362;10.012;2022-10-18T23:22:20;5.00;;;1.20;;
5519;SDS011;2782;52.362;10.012;2022-10-18T23:29:03;4.63;;;1.50;;
5519;SDS011;2782;52.362;10.012;2022-10-18T23:35:44;3.37;;;1.27;;
5519;SDS011;2782;52.362;10.012;2022-10-18T23:42:26;1.93;;;0.93;;
5519;SDS011;2782;52.362;10.012;2022-10-18T23:49:09;1.67;;;1.27;;
5519;SDS011;2782;52.362;10.012;2022-10-18T23:55:51;1.93;;;1.10;;
